UAE852 OMDB-VAAH
Flight info
| Callsign | UAE852 |
|---|---|
| Flight time | 2h 18m |
| Altitude | 39000 |
| Route | IVURO1F IVURO M677 LALDO B505 NADSO B524 ALPOR M504 TELEM N893 VASLA VASLA1A |
| Aircraft | A346/H-SDE2E3FGHIJ3J4J5M1RWXY/LB1D1 |
Departure
| Time | 2026-04-26 09:33 |
|---|---|
| Airport | Dubai International Airport (OMDB) |
Arrival
| Time | 2026-04-26 11:52 |
|---|---|
| Airport | Sardar Vallabh Patel International Airport (VAAH) |
| Time | Latitude | Longitude | Altitude | Speed | Heading |
|---|---|---|---|---|---|
| 2026-04-26 08:38 | 25.24731 | 55.36557 | 59 ft | 0 kts | 211° |
| 2026-04-26 09:00 | 25.24730 | 55.36556 | 59 ft | 0 kts | 211° |
| 2026-04-26 09:00 | 25.24741 | 55.36563 | 59 ft | 2 kts | 213° |
| 2026-04-26 09:01 | 25.24753 | 55.36574 | 60 ft | 2 kts | 223° |
| 2026-04-26 09:01 | 25.24763 | 55.36585 | 61 ft | 2 kts | 230° |
| 2026-04-26 09:01 | 25.24772 | 55.36599 | 62 ft | 2 kts | 237° |
| 2026-04-26 09:01 | 25.24780 | 55.36613 | 63 ft | 2 kts | 244° |
| 2026-04-26 09:02 | 25.24785 | 55.36629 | 64 ft | 2 kts | 252° |
| 2026-04-26 09:02 | 25.24789 | 55.36644 | 65 ft | 2 kts | 259° |
| 2026-04-26 09:02 | 25.24791 | 55.36661 | 67 ft | 2 kts | 266° |
| 2026-04-26 09:02 | 25.24791 | 55.36678 | 68 ft | 2 kts | 274° |
| 2026-04-26 09:03 | 25.24790 | 55.36694 | 68 ft | 2 kts | 281° |
| 2026-04-26 09:03 | 25.24787 | 55.36706 | 69 ft | 0 kts | 287° |
| 2026-04-26 09:03 | 25.24786 | 55.36709 | 69 ft | 0 kts | 287° |
| 2026-04-26 09:13 | 25.24788 | 55.36703 | 69 ft | 3 kts | 287° |
| 2026-04-26 09:13 | 25.24803 | 55.36650 | 66 ft | 11 kts | 290° |
| 2026-04-26 09:13 | 25.24855 | 55.36544 | 57 ft | 19 kts | 302° |
| 2026-04-26 09:13 | 25.24929 | 55.36411 | 47 ft | 22 kts | 301° |
| 2026-04-26 09:14 | 25.24989 | 55.36303 | 40 ft | 6 kts | 301° |
| 2026-04-26 09:14 | 25.25019 | 55.36249 | 38 ft | 11 kts | 301° |
| 2026-04-26 09:14 | 25.25071 | 55.36155 | 34 ft | 16 kts | 302° |
| 2026-04-26 09:14 | 25.25142 | 55.36028 | 29 ft | 21 kts | 302° |
| 2026-04-26 09:15 | 25.25224 | 55.35881 | 28 ft | 23 kts | 301° |
| 2026-04-26 09:15 | 25.25311 | 55.35725 | 26 ft | 25 kts | 301° |
| 2026-04-26 09:15 | 25.25408 | 55.35548 | 23 ft | 27 kts | 301° |
| 2026-04-26 09:15 | 25.25488 | 55.35404 | 21 ft | 6 kts | 301° |
| 2026-04-26 09:16 | 25.25504 | 55.35375 | 21 ft | 6 kts | 301° |
| 2026-04-26 09:16 | 25.25535 | 55.35319 | 21 ft | 10 kts | 301° |
| 2026-04-26 09:16 | 25.25576 | 55.35244 | 21 ft | 9 kts | 301° |
| 2026-04-26 09:16 | 25.25596 | 55.35208 | 21 ft | 6 kts | 301° |
| 2026-04-26 09:17 | 25.25632 | 55.35161 | 21 ft | 9 kts | 333° |
| 2026-04-26 09:17 | 25.25678 | 55.35162 | 21 ft | 11 kts | 20° |
| 2026-04-26 09:17 | 25.25766 | 55.35217 | 20 ft | 2 kts | 30° |
| 2026-04-26 09:17 | 25.25772 | 55.35222 | 20 ft | 2 kts | 30° |
| 2026-04-26 09:18 | 25.25781 | 55.35227 | 20 ft | 0 kts | 31° |
| 2026-04-26 09:18 | 25.25798 | 55.35239 | 20 ft | 5 kts | 31° |
| 2026-04-26 09:18 | 25.25846 | 55.35271 | 19 ft | 10 kts | 30° |
| 2026-04-26 09:18 | 25.25917 | 55.35320 | 18 ft | 14 kts | 33° |
| 2026-04-26 09:19 | 25.25984 | 55.35416 | 15 ft | 18 kts | 71° |
| 2026-04-26 09:19 | 25.25967 | 55.35570 | 12 ft | 21 kts | 118° |
| 2026-04-26 09:19 | 25.25887 | 55.35719 | 15 ft | 21 kts | 122° |
| 2026-04-26 09:19 | 25.25802 | 55.35862 | 19 ft | 21 kts | 121° |
| 2026-04-26 09:20 | 25.25722 | 55.36010 | 20 ft | 22 kts | 121° |
| 2026-04-26 09:20 | 25.25641 | 55.36158 | 25 ft | 21 kts | 122° |
| 2026-04-26 09:20 | 25.25561 | 55.36299 | 29 ft | 21 kts | 122° |
| 2026-04-26 09:20 | 25.25484 | 55.36437 | 34 ft | 20 kts | 121° |
| 2026-04-26 09:21 | 25.25413 | 55.36565 | 40 ft | 17 kts | 121° |
| 2026-04-26 09:21 | 25.25352 | 55.36675 | 47 ft | 15 kts | 121° |
| 2026-04-26 09:21 | 25.25297 | 55.36774 | 51 ft | 14 kts | 121° |
| 2026-04-26 09:21 | 25.25246 | 55.36867 | 54 ft | 14 kts | 121° |
| 2026-04-26 09:22 | 25.25193 | 55.36963 | 56 ft | 14 kts | 121° |
| 2026-04-26 09:22 | 25.25133 | 55.37071 | 57 ft | 17 kts | 121° |
| 2026-04-26 09:22 | 25.25063 | 55.37197 | 57 ft | 21 kts | 121° |
| 2026-04-26 09:22 | 25.24954 | 55.37394 | 53 ft | 33 kts | 121° |
| 2026-04-26 09:23 | 25.24868 | 55.37549 | 48 ft | 22 kts | 121° |
| 2026-04-26 09:23 | 25.24791 | 55.37687 | 45 ft | 9 kts | 121° |
| 2026-04-26 09:23 | 25.24778 | 55.37711 | 44 ft | 0 kts | 121° |
| 2026-04-26 09:24 | 25.24777 | 55.37712 | 44 ft | 0 kts | 121° |
| 2026-04-26 09:25 | 25.24761 | 55.37742 | 44 ft | 7 kts | 122° |
| 2026-04-26 09:25 | 25.24754 | 55.37753 | 44 ft | 0 kts | 122° |
| 2026-04-26 09:26 | 25.24745 | 55.37770 | 44 ft | 2 kts | 122° |
| 2026-04-26 09:26 | 25.24745 | 55.37771 | 44 ft | 0 kts | 122° |
| 2026-04-26 09:29 | 25.24741 | 55.37778 | 44 ft | 3 kts | 122° |
| 2026-04-26 09:29 | 25.24706 | 55.37841 | 43 ft | 14 kts | 122° |
| 2026-04-26 09:29 | 25.24641 | 55.37957 | 42 ft | 21 kts | 117° |
| 2026-04-26 09:30 | 25.24666 | 55.38061 | 40 ft | 13 kts | 34° |
| 2026-04-26 09:30 | 25.24722 | 55.38098 | 38 ft | 7 kts | 26° |
| 2026-04-26 09:30 | 25.24754 | 55.38094 | 37 ft | 2 kts | 308° |
| 2026-04-26 09:30 | 25.24772 | 55.38068 | 37 ft | 1 kts | 305° |
| 2026-04-26 09:31 | 25.24791 | 55.38042 | 38 ft | 8 kts | 310° |
| 2026-04-26 09:31 | 25.24821 | 55.38000 | 38 ft | 0 kts | 301° |
| 2026-04-26 09:32 | 25.24824 | 55.37994 | 38 ft | 7 kts | 301° |
| 2026-04-26 09:33 | 25.24994 | 55.37688 | 41 ft | 84 kts | 301° |
| 2026-04-26 09:33 | 25.25414 | 55.36924 | 46 ft | 146 kts | 301° |
| 2026-04-26 09:33 | 25.26037 | 55.35813 | 201 ft | 182 kts | 302° |
| 2026-04-26 09:33 | 25.26656 | 55.34589 | 877 ft | 184 kts | 301° |
| 2026-04-26 09:34 | 25.27297 | 55.33325 | 1349 ft | 199 kts | 303° |
| 2026-04-26 09:34 | 25.28064 | 55.31959 | 1850 ft | 216 kts | 305° |
| 2026-04-26 09:34 | 25.28929 | 55.30554 | 2244 ft | 230 kts | 315° |
| 2026-04-26 09:34 | 25.30278 | 55.29612 | 2867 ft | 231 kts | 347° |
| 2026-04-26 09:35 | 25.31847 | 55.29470 | 3670 ft | 228 kts | 1° |
| 2026-04-26 09:35 | 25.33428 | 55.29505 | 4377 ft | 231 kts | 3° |
| 2026-04-26 09:35 | 25.35036 | 55.29559 | 5067 ft | 235 kts | 2° |
| 2026-04-26 09:35 | 25.36655 | 55.29880 | 5653 ft | 242 kts | 32° |
| 2026-04-26 09:36 | 25.37839 | 55.31218 | 6117 ft | 253 kts | 65° |
| 2026-04-26 09:36 | 25.38258 | 55.33100 | 6595 ft | 260 kts | 96° |
| 2026-04-26 09:36 | 25.37929 | 55.35113 | 7039 ft | 275 kts | 106° |
| 2026-04-26 09:36 | 25.37456 | 55.37223 | 7607 ft | 289 kts | 106° |
| 2026-04-26 09:37 | 25.36976 | 55.39397 | 8420 ft | 294 kts | 106° |
| 2026-04-26 09:37 | 25.36517 | 55.41559 | 9369 ft | 296 kts | 105° |
| 2026-04-26 09:37 | 25.36060 | 55.43761 | 10628 ft | 298 kts | 104° |
| 2026-04-26 09:37 | 25.35600 | 55.46021 | 11676 ft | 307 kts | 104° |
| 2026-04-26 09:38 | 25.35123 | 55.48392 | 12380 ft | 326 kts | 103° |
| 2026-04-26 09:38 | 25.34626 | 55.50897 | 13015 ft | 344 kts | 103° |
| 2026-04-26 09:38 | 25.34105 | 55.53541 | 13479 ft | 361 kts | 103° |
| 2026-04-26 09:38 | 25.33548 | 55.56358 | 13845 ft | 379 kts | 104° |
| 2026-04-26 09:39 | 25.32979 | 55.59238 | 14358 ft | 390 kts | 104° |
| 2026-04-26 09:39 | 25.32400 | 55.62179 | 15067 ft | 395 kts | 104° |
| 2026-04-26 09:39 | 25.31812 | 55.65162 | 15793 ft | 399 kts | 104° |
| 2026-04-26 09:39 | 25.31218 | 55.68176 | 16501 ft | 403 kts | 104° |
| 2026-04-26 09:40 | 25.30623 | 55.71202 | 17183 ft | 407 kts | 105° |
| 2026-04-26 09:40 | 25.30023 | 55.74244 | 17847 ft | 412 kts | 105° |
| 2026-04-26 09:40 | 25.29401 | 55.77390 | 18509 ft | 416 kts | 105° |
| 2026-04-26 09:40 | 25.28780 | 55.80524 | 19149 ft | 421 kts | 105° |
| 2026-04-26 09:41 | 25.28149 | 55.83701 | 19778 ft | 426 kts | 105° |
| 2026-04-26 09:41 | 25.27509 | 55.86916 | 20398 ft | 430 kts | 105° |
| 2026-04-26 09:41 | 25.26862 | 55.90163 | 21005 ft | 435 kts | 106° |
| 2026-04-26 09:41 | 25.26214 | 55.93408 | 21592 ft | 440 kts | 106° |
| 2026-04-26 09:42 | 25.25544 | 55.96764 | 22187 ft | 445 kts | 106° |
| 2026-04-26 09:42 | 25.24872 | 56.00123 | 22773 ft | 450 kts | 106° |
| 2026-04-26 09:42 | 25.24196 | 56.03495 | 23346 ft | 455 kts | 106° |
| 2026-04-26 09:42 | 25.23508 | 56.06924 | 23910 ft | 460 kts | 106° |
| 2026-04-26 09:43 | 25.22817 | 56.10363 | 24464 ft | 465 kts | 106° |
| 2026-04-26 09:43 | 25.22110 | 56.13885 | 25021 ft | 470 kts | 106° |
| 2026-04-26 09:43 | 25.21393 | 56.17448 | 25560 ft | 475 kts | 106° |
| 2026-04-26 09:43 | 25.20675 | 56.21007 | 26078 ft | 480 kts | 106° |
| 2026-04-26 09:44 | 25.19947 | 56.24609 | 26568 ft | 485 kts | 106° |
| 2026-04-26 09:44 | 25.19206 | 56.28278 | 27052 ft | 490 kts | 106° |
| 2026-04-26 09:44 | 25.18464 | 56.31942 | 27530 ft | 495 kts | 106° |
| 2026-04-26 09:44 | 25.17708 | 56.35678 | 27999 ft | 499 kts | 106° |
| 2026-04-26 09:45 | 25.16939 | 56.39467 | 28512 ft | 503 kts | 106° |
| 2026-04-26 09:45 | 25.16176 | 56.43229 | 29175 ft | 502 kts | 106° |
| 2026-04-26 09:45 | 25.15418 | 56.46960 | 29841 ft | 502 kts | 106° |
| 2026-04-26 09:45 | 25.14839 | 56.49812 | 30327 ft | 501 kts | 106° |
| 2026-04-26 09:46 | 25.14080 | 56.53541 | 30927 ft | 502 kts | 106° |
| 2026-04-26 09:46 | 25.13312 | 56.57304 | 31514 ft | 503 kts | 106° |
| 2026-04-26 09:46 | 25.12541 | 56.61078 | 32133 ft | 504 kts | 105° |
| 2026-04-26 09:46 | 25.11772 | 56.64834 | 32742 ft | 504 kts | 105° |
| 2026-04-26 09:47 | 25.11000 | 56.68612 | 33320 ft | 504 kts | 106° |
| 2026-04-26 09:47 | 25.10227 | 56.72395 | 33888 ft | 503 kts | 105° |
| 2026-04-26 09:47 | 25.09462 | 56.76138 | 34433 ft | 503 kts | 105° |
| 2026-04-26 09:47 | 25.08689 | 56.79917 | 34993 ft | 502 kts | 105° |
| 2026-04-26 09:48 | 25.07928 | 56.83626 | 35555 ft | 499 kts | 105° |
| 2026-04-26 09:48 | 25.07155 | 56.87382 | 36103 ft | 497 kts | 105° |
| 2026-04-26 09:48 | 25.06395 | 56.91069 | 36608 ft | 495 kts | 105° |
| 2026-04-26 09:48 | 25.05628 | 56.94780 | 37063 ft | 494 kts | 105° |
| 2026-04-26 09:49 | 25.04865 | 56.98467 | 37431 ft | 495 kts | 105° |
| 2026-04-26 09:49 | 25.04092 | 57.02195 | 37720 ft | 496 kts | 105° |
| 2026-04-26 09:49 | 25.03321 | 57.05906 | 37959 ft | 499 kts | 105° |
| 2026-04-26 09:49 | 25.02539 | 57.09661 | 38075 ft | 504 kts | 105° |
| 2026-04-26 09:50 | 25.01753 | 57.13432 | 38186 ft | 508 kts | 105° |
| 2026-04-26 09:50 | 25.00963 | 57.17240 | 38288 ft | 513 kts | 105° |
| 2026-04-26 09:50 | 25.00169 | 57.21061 | 38392 ft | 517 kts | 105° |
| 2026-04-26 09:50 | 24.99356 | 57.24966 | 38493 ft | 520 kts | 105° |
| 2026-04-26 09:51 | 24.98549 | 57.28827 | 38622 ft | 523 kts | 105° |
| 2026-04-26 09:51 | 24.97724 | 57.32752 | 38797 ft | 524 kts | 102° |
| 2026-04-26 09:51 | 24.96870 | 57.36723 | 38908 ft | 529 kts | 104° |
| 2026-04-26 09:52 | 24.95234 | 57.44718 | 38906 ft | 541 kts | 110° |
| 2026-04-26 09:52 | 24.93489 | 57.52939 | 38918 ft | 556 kts | 105° |
| 2026-04-26 09:52 | 24.92557 | 57.57154 | 38927 ft | 564 kts | 101° |
| 2026-04-26 09:53 | 24.90746 | 57.65633 | 38928 ft | 579 kts | 104° |
| 2026-04-26 09:53 | 24.89248 | 57.72904 | 38929 ft | 589 kts | 106° |
| 2026-04-26 09:54 | 24.87443 | 57.81741 | 39025 ft | 589 kts | 99° |
| 2026-04-26 09:54 | 24.86620 | 57.86125 | 39142 ft | 589 kts | 104° |
| 2026-04-26 09:54 | 24.85806 | 57.90586 | 39283 ft | 591 kts | 103° |
| 2026-04-26 09:55 | 24.85025 | 57.95003 | 39450 ft | 591 kts | 102° |
| 2026-04-26 09:55 | 24.84154 | 57.99440 | 39390 ft | 592 kts | 105° |
| 2026-04-26 09:55 | 24.83371 | 58.03905 | 39085 ft | 590 kts | 96° |
| 2026-04-26 09:55 | 24.82964 | 58.08397 | 38920 ft | 593 kts | 99° |
| 2026-04-26 09:56 | 24.80973 | 58.17215 | 38923 ft | 593 kts | 108° |
| 2026-04-26 09:56 | 24.78689 | 58.25928 | 38924 ft | 594 kts | 107° |
| 2026-04-26 09:57 | 24.76590 | 58.34808 | 38924 ft | 595 kts | 105° |
| 2026-04-26 09:57 | 24.74623 | 58.43651 | 38923 ft | 595 kts | 105° |
| 2026-04-26 09:58 | 24.72675 | 58.52511 | 38923 ft | 595 kts | 105° |
| 2026-04-26 09:58 | 24.70701 | 58.61458 | 38923 ft | 595 kts | 105° |
| 2026-04-26 09:59 | 24.69070 | 58.68831 | 38917 ft | 595 kts | 105° |
| 2026-04-26 09:59 | 24.66778 | 58.79177 | 38922 ft | 595 kts | 105° |
| 2026-04-26 10:00 | 24.64818 | 58.87970 | 38923 ft | 594 kts | 105° |
| 2026-04-26 10:00 | 24.62840 | 58.96811 | 38923 ft | 594 kts | 105° |
| 2026-04-26 10:01 | 24.60857 | 59.05644 | 38923 ft | 594 kts | 105° |
| 2026-04-26 10:01 | 24.58873 | 59.14452 | 38923 ft | 594 kts | 105° |
| 2026-04-26 10:02 | 24.56889 | 59.23239 | 38923 ft | 594 kts | 105° |
| 2026-04-26 10:02 | 24.54889 | 59.32072 | 38923 ft | 594 kts | 105° |
| 2026-04-26 10:03 | 24.52857 | 59.41018 | 38923 ft | 594 kts | 105° |
| 2026-04-26 10:03 | 24.50856 | 59.49805 | 38923 ft | 594 kts | 105° |
| 2026-04-26 10:04 | 24.48855 | 59.58563 | 38923 ft | 594 kts | 105° |
| 2026-04-26 10:04 | 24.46843 | 59.67355 | 38916 ft | 594 kts | 106° |
| 2026-04-26 10:05 | 24.44831 | 59.76151 | 38921 ft | 594 kts | 106° |
| 2026-04-26 10:05 | 24.42798 | 59.84996 | 38923 ft | 594 kts | 106° |
| 2026-04-26 10:06 | 24.40765 | 59.93800 | 38923 ft | 594 kts | 106° |
| 2026-04-26 10:06 | 24.38722 | 60.02616 | 38923 ft | 594 kts | 106° |
| 2026-04-26 10:07 | 24.36688 | 60.11370 | 38923 ft | 594 kts | 106° |
| 2026-04-26 10:07 | 24.34639 | 60.20166 | 38923 ft | 594 kts | 106° |
| 2026-04-26 10:08 | 24.32590 | 60.28936 | 38924 ft | 594 kts | 106° |
| 2026-04-26 10:08 | 24.30544 | 60.37674 | 38923 ft | 594 kts | 106° |
| 2026-04-26 10:09 | 24.28482 | 60.46453 | 38923 ft | 594 kts | 106° |
| 2026-04-26 10:09 | 24.26427 | 60.55183 | 38924 ft | 594 kts | 106° |
| 2026-04-26 10:10 | 24.24352 | 60.63968 | 38924 ft | 594 kts | 106° |
| 2026-04-26 10:10 | 24.22284 | 60.72733 | 38920 ft | 594 kts | 106° |
| 2026-04-26 10:11 | 24.20219 | 60.81451 | 38923 ft | 594 kts | 106° |
| 2026-04-26 10:11 | 24.18129 | 60.90232 | 38923 ft | 594 kts | 106° |
| 2026-04-26 10:12 | 24.16047 | 60.98951 | 38923 ft | 594 kts | 106° |
| 2026-04-26 10:12 | 24.13945 | 61.07730 | 38923 ft | 594 kts | 106° |
| 2026-04-26 10:13 | 24.11884 | 61.16319 | 38924 ft | 594 kts | 106° |
| 2026-04-26 10:13 | 24.10200 | 61.23307 | 39113 ft | 560 kts | 106° |
| 2026-04-26 10:14 | 24.09248 | 61.27309 | 39576 ft | 528 kts | 105° |
| 2026-04-26 10:14 | 24.08349 | 61.31163 | 39950 ft | 520 kts | 105° |
| 2026-04-26 10:14 | 24.07593 | 61.35028 | 40059 ft | 518 kts | 99° |
| 2026-04-26 10:14 | 24.07190 | 61.38964 | 40010 ft | 514 kts | 95° |
| 2026-04-26 10:15 | 24.06995 | 61.42816 | 39476 ft | 508 kts | 93° |
| 2026-04-26 10:15 | 24.06836 | 61.46724 | 39085 ft | 515 kts | 93° |
| 2026-04-26 10:15 | 24.06664 | 61.50644 | 38956 ft | 517 kts | 93° |
| 2026-04-26 10:15 | 24.06467 | 61.54625 | 38951 ft | 518 kts | 94° |
| 2026-04-26 10:16 | 24.06034 | 61.62469 | 38949 ft | 518 kts | 94° |
| 2026-04-26 10:16 | 24.05568 | 61.70348 | 38946 ft | 518 kts | 95° |
| 2026-04-26 10:17 | 24.05091 | 61.78209 | 38947 ft | 518 kts | 95° |
| 2026-04-26 10:17 | 24.04607 | 61.86077 | 38947 ft | 518 kts | 95° |
| 2026-04-26 10:18 | 24.04118 | 61.93938 | 38947 ft | 518 kts | 95° |
| 2026-04-26 10:18 | 24.03623 | 62.01829 | 38947 ft | 518 kts | 95° |
| 2026-04-26 10:19 | 24.03126 | 62.09699 | 38948 ft | 518 kts | 95° |
| 2026-04-26 10:19 | 24.02622 | 62.17614 | 38948 ft | 518 kts | 95° |
| 2026-04-26 10:20 | 24.02202 | 62.24164 | 38948 ft | 518 kts | 95° |
| 2026-04-26 10:20 | 24.01603 | 62.33405 | 38948 ft | 518 kts | 95° |
| 2026-04-26 10:21 | 24.01090 | 62.41274 | 38948 ft | 518 kts | 95° |
| 2026-04-26 10:21 | 24.00570 | 62.49183 | 38948 ft | 518 kts | 95° |
| 2026-04-26 10:22 | 24.00050 | 62.57037 | 38948 ft | 518 kts | 95° |
| 2026-04-26 10:22 | 23.99521 | 62.64950 | 38948 ft | 518 kts | 95° |
| 2026-04-26 10:23 | 23.98996 | 62.72772 | 38947 ft | 518 kts | 95° |
| 2026-04-26 10:23 | 23.98463 | 62.80658 | 38947 ft | 518 kts | 95° |
| 2026-04-26 10:24 | 23.97923 | 62.88546 | 38947 ft | 518 kts | 95° |
| 2026-04-26 10:24 | 23.97380 | 62.96425 | 38948 ft | 517 kts | 95° |
| 2026-04-26 10:25 | 23.96830 | 63.04334 | 38948 ft | 516 kts | 95° |
| 2026-04-26 10:25 | 23.96284 | 63.12138 | 38948 ft | 514 kts | 95° |
| 2026-04-26 10:26 | 23.95734 | 63.19964 | 38941 ft | 514 kts | 95° |
| 2026-04-26 10:26 | 23.95181 | 63.27782 | 38915 ft | 514 kts | 95° |
| 2026-04-26 10:27 | 23.94623 | 63.35606 | 38878 ft | 514 kts | 95° |
| 2026-04-26 10:27 | 23.94062 | 63.43395 | 38841 ft | 514 kts | 95° |
| 2026-04-26 10:28 | 23.93492 | 63.51275 | 38823 ft | 514 kts | 95° |
| 2026-04-26 10:28 | 23.92926 | 63.59023 | 38816 ft | 514 kts | 95° |
| 2026-04-26 10:29 | 23.92349 | 63.66874 | 38812 ft | 514 kts | 95° |
| 2026-04-26 10:29 | 23.91775 | 63.74658 | 38812 ft | 514 kts | 95° |
| 2026-04-26 10:30 | 23.91198 | 63.82419 | 38812 ft | 514 kts | 95° |
| 2026-04-26 10:30 | 23.90612 | 63.90230 | 38813 ft | 514 kts | 95° |
| 2026-04-26 10:31 | 23.90025 | 63.98011 | 38813 ft | 514 kts | 95° |
| 2026-04-26 10:31 | 23.89407 | 64.05800 | 38813 ft | 514 kts | 95° |
| 2026-04-26 10:32 | 23.88783 | 64.13651 | 38813 ft | 514 kts | 95° |
| 2026-04-26 10:32 | 23.88174 | 64.21477 | 38813 ft | 514 kts | 95° |
| 2026-04-26 10:33 | 23.87569 | 64.29269 | 38813 ft | 514 kts | 95° |
| 2026-04-26 10:33 | 23.86961 | 64.37066 | 38813 ft | 514 kts | 95° |
| 2026-04-26 10:34 | 23.86351 | 64.44849 | 38812 ft | 514 kts | 95° |
| 2026-04-26 10:34 | 23.85737 | 64.52636 | 38812 ft | 514 kts | 95° |
| 2026-04-26 10:35 | 23.85116 | 64.60476 | 38812 ft | 514 kts | 95° |
| 2026-04-26 10:35 | 23.84493 | 64.68321 | 38811 ft | 514 kts | 95° |
| 2026-04-26 10:36 | 23.83871 | 64.76138 | 38813 ft | 514 kts | 95° |
| 2026-04-26 10:36 | 23.83338 | 64.83899 | 38813 ft | 514 kts | 92° |
| 2026-04-26 10:37 | 23.83294 | 64.91838 | 38814 ft | 514 kts | 90° |
| 2026-04-26 10:37 | 23.83350 | 64.99655 | 38813 ft | 513 kts | 89° |
| 2026-04-26 10:38 | 23.83404 | 65.07492 | 38813 ft | 513 kts | 89° |
| 2026-04-26 10:38 | 23.83447 | 65.15292 | 38813 ft | 512 kts | 89° |
| 2026-04-26 10:39 | 23.83485 | 65.23091 | 38813 ft | 512 kts | 90° |
| 2026-04-26 10:39 | 23.83517 | 65.30857 | 38813 ft | 512 kts | 89° |
| 2026-04-26 10:40 | 23.83546 | 65.38657 | 38813 ft | 512 kts | 90° |
| 2026-04-26 10:40 | 23.83571 | 65.46428 | 38813 ft | 512 kts | 89° |
| 2026-04-26 10:41 | 23.83592 | 65.54214 | 38813 ft | 512 kts | 90° |
| 2026-04-26 10:41 | 23.83609 | 65.62001 | 38812 ft | 512 kts | 90° |
| 2026-04-26 10:42 | 23.83622 | 65.69734 | 38811 ft | 513 kts | 90° |
| 2026-04-26 10:42 | 23.83632 | 65.77551 | 38813 ft | 512 kts | 90° |
| 2026-04-26 10:43 | 23.83637 | 65.85323 | 38813 ft | 512 kts | 90° |
| 2026-04-26 10:43 | 23.83638 | 65.93065 | 38813 ft | 512 kts | 90° |
| 2026-04-26 10:44 | 23.83637 | 66.00866 | 38813 ft | 513 kts | 90° |
| 2026-04-26 10:44 | 23.83630 | 66.08649 | 38813 ft | 512 kts | 90° |
| 2026-04-26 10:45 | 23.83620 | 66.16458 | 38813 ft | 512 kts | 90° |
| 2026-04-26 10:45 | 23.83606 | 66.24198 | 38813 ft | 512 kts | 90° |
| 2026-04-26 10:46 | 23.83589 | 66.31976 | 38813 ft | 513 kts | 90° |
| 2026-04-26 10:46 | 23.83567 | 66.39791 | 38813 ft | 512 kts | 90° |
| 2026-04-26 10:47 | 23.83542 | 66.47594 | 38813 ft | 512 kts | 90° |
| 2026-04-26 10:47 | 23.83513 | 66.55418 | 38812 ft | 512 kts | 90° |
| 2026-04-26 10:48 | 23.83481 | 66.63233 | 38813 ft | 512 kts | 90° |
| 2026-04-26 10:48 | 23.83446 | 66.71061 | 38812 ft | 513 kts | 90° |
| 2026-04-26 10:49 | 23.83409 | 66.78840 | 38813 ft | 513 kts | 90° |
| 2026-04-26 10:49 | 23.83370 | 66.86669 | 38813 ft | 512 kts | 90° |
| 2026-04-26 10:50 | 23.83332 | 66.93173 | 38812 ft | 512 kts | 90° |
| 2026-04-26 10:50 | 23.83755 | 67.02287 | 38814 ft | 512 kts | 83° |
| 2026-04-26 10:51 | 23.85509 | 67.13804 | 38813 ft | 510 kts | 79° |
| 2026-04-26 10:52 | 23.86799 | 67.21459 | 38813 ft | 509 kts | 79° |
| 2026-04-26 10:52 | 23.88072 | 67.29112 | 38814 ft | 510 kts | 79° |
| 2026-04-26 10:53 | 23.89328 | 67.36724 | 38812 ft | 510 kts | 79° |
| 2026-04-26 10:53 | 23.90581 | 67.44355 | 38812 ft | 509 kts | 79° |
| 2026-04-26 10:54 | 23.92457 | 67.55842 | 38812 ft | 509 kts | 79° |
| 2026-04-26 10:54 | 23.93699 | 67.63474 | 38812 ft | 509 kts | 79° |
| 2026-04-26 10:55 | 23.94930 | 67.71081 | 38812 ft | 509 kts | 79° |
| 2026-04-26 10:55 | 23.95953 | 67.77425 | 38812 ft | 509 kts | 79° |
| 2026-04-26 10:56 | 23.97388 | 67.86339 | 38812 ft | 509 kts | 79° |
| 2026-04-26 10:56 | 23.98613 | 67.93968 | 38813 ft | 509 kts | 79° |
| 2026-04-26 10:57 | 23.99839 | 68.01620 | 38812 ft | 509 kts | 79° |
| 2026-04-26 10:57 | 24.01067 | 68.09311 | 38812 ft | 510 kts | 79° |
| 2026-04-26 10:58 | 24.02289 | 68.16990 | 38813 ft | 509 kts | 79° |
| 2026-04-26 10:58 | 24.03505 | 68.24651 | 38812 ft | 509 kts | 79° |
| 2026-04-26 10:59 | 24.04717 | 68.32307 | 38813 ft | 510 kts | 79° |
| 2026-04-26 10:59 | 24.05925 | 68.39967 | 38812 ft | 509 kts | 79° |
| 2026-04-26 11:00 | 24.07132 | 68.47624 | 38812 ft | 510 kts | 79° |
| 2026-04-26 11:00 | 24.08336 | 68.55273 | 38811 ft | 510 kts | 79° |
| 2026-04-26 11:01 | 24.09538 | 68.62955 | 38812 ft | 509 kts | 79° |
| 2026-04-26 11:01 | 24.10374 | 68.70665 | 38812 ft | 510 kts | 87° |
| 2026-04-26 11:02 | 24.10268 | 68.78455 | 38812 ft | 509 kts | 95° |
| 2026-04-26 11:02 | 24.09189 | 68.86079 | 38814 ft | 509 kts | 103° |
| 2026-04-26 11:03 | 24.07333 | 68.93572 | 38815 ft | 508 kts | 107° |
| 2026-04-26 11:03 | 24.05374 | 69.00996 | 38814 ft | 508 kts | 107° |
| 2026-04-26 11:04 | 24.03311 | 69.08412 | 39215 ft | 499 kts | 111° |
| 2026-04-26 11:04 | 24.02190 | 69.11933 | 39415 ft | 490 kts | 115° |
| 2026-04-26 11:04 | 24.00777 | 69.15140 | 40286 ft | 455 kts | 117° |
| 2026-04-26 11:05 | 23.99634 | 69.18353 | 40198 ft | 447 kts | 105° |
| 2026-04-26 11:05 | 23.99001 | 69.21667 | 39466 ft | 456 kts | 100° |
| 2026-04-26 11:05 | 23.98423 | 69.25188 | 39009 ft | 474 kts | 101° |
| 2026-04-26 11:05 | 23.97739 | 69.28797 | 38820 ft | 486 kts | 103° |
| 2026-04-26 11:06 | 23.96384 | 69.34844 | 38819 ft | 498 kts | 105° |
| 2026-04-26 11:06 | 23.94205 | 69.43518 | 38817 ft | 507 kts | 106° |
| 2026-04-26 11:07 | 23.92255 | 69.50977 | 38813 ft | 508 kts | 106° |
| 2026-04-26 11:07 | 23.90296 | 69.58398 | 38813 ft | 508 kts | 107° |
| 2026-04-26 11:08 | 23.88306 | 69.65833 | 38811 ft | 507 kts | 107° |
| 2026-04-26 11:08 | 23.86330 | 69.73219 | 38812 ft | 508 kts | 107° |
| 2026-04-26 11:09 | 23.84344 | 69.80669 | 38813 ft | 508 kts | 107° |
| 2026-04-26 11:09 | 23.82378 | 69.88048 | 38811 ft | 507 kts | 107° |
| 2026-04-26 11:10 | 23.80396 | 69.95474 | 38792 ft | 507 kts | 107° |
| 2026-04-26 11:10 | 23.79408 | 69.99171 | 38553 ft | 508 kts | 107° |
| 2026-04-26 11:10 | 23.78417 | 70.02873 | 38306 ft | 508 kts | 107° |
| 2026-04-26 11:11 | 23.77419 | 70.06599 | 38055 ft | 508 kts | 107° |
| 2026-04-26 11:11 | 23.76418 | 70.10331 | 37806 ft | 508 kts | 107° |
| 2026-04-26 11:11 | 23.75427 | 70.14024 | 37555 ft | 508 kts | 107° |
| 2026-04-26 11:11 | 23.74426 | 70.17746 | 37306 ft | 508 kts | 107° |
| 2026-04-26 11:12 | 23.73436 | 70.21426 | 37059 ft | 508 kts | 107° |
| 2026-04-26 11:12 | 23.72430 | 70.25161 | 36784 ft | 508 kts | 107° |
| 2026-04-26 11:12 | 23.71440 | 70.28832 | 36440 ft | 508 kts | 107° |
| 2026-04-26 11:12 | 23.70444 | 70.32525 | 35959 ft | 508 kts | 107° |
| 2026-04-26 11:13 | 23.69440 | 70.36243 | 35353 ft | 510 kts | 107° |
| 2026-04-26 11:13 | 23.68439 | 70.39942 | 34722 ft | 511 kts | 107° |
| 2026-04-26 11:13 | 23.67418 | 70.43715 | 34072 ft | 513 kts | 107° |
| 2026-04-26 11:13 | 23.66400 | 70.47472 | 33417 ft | 515 kts | 107° |
| 2026-04-26 11:14 | 23.65393 | 70.51241 | 33040 ft | 516 kts | 106° |
| 2026-04-26 11:14 | 23.64388 | 70.55010 | 32431 ft | 523 kts | 106° |
| 2026-04-26 11:14 | 23.63341 | 70.58833 | 31584 ft | 523 kts | 106° |
| 2026-04-26 11:14 | 23.62654 | 70.61330 | 31185 ft | 522 kts | 106° |
| 2026-04-26 11:15 | 23.61249 | 70.66449 | 30755 ft | 524 kts | 106° |
| 2026-04-26 11:15 | 23.60211 | 70.70261 | 30728 ft | 525 kts | 106° |
| 2026-04-26 11:15 | 23.58169 | 70.77769 | 30719 ft | 504 kts | 106° |
| 2026-04-26 11:16 | 23.56195 | 70.85014 | 30713 ft | 485 kts | 106° |
| 2026-04-26 11:16 | 23.55231 | 70.88545 | 30571 ft | 473 kts | 106° |
| 2026-04-26 11:16 | 23.54294 | 70.91967 | 30087 ft | 471 kts | 106° |
| 2026-04-26 11:17 | 23.53349 | 70.95409 | 29186 ft | 478 kts | 106° |
| 2026-04-26 11:17 | 23.52378 | 70.98883 | 28186 ft | 486 kts | 107° |
| 2026-04-26 11:17 | 23.51236 | 71.02406 | 27206 ft | 492 kts | 110° |
| 2026-04-26 11:17 | 23.50019 | 71.05885 | 26495 ft | 491 kts | 110° |
| 2026-04-26 11:18 | 23.48803 | 71.09319 | 25947 ft | 486 kts | 110° |
| 2026-04-26 11:18 | 23.47591 | 71.12742 | 25499 ft | 479 kts | 110° |
| 2026-04-26 11:18 | 23.46401 | 71.16104 | 24940 ft | 466 kts | 110° |
| 2026-04-26 11:18 | 23.45261 | 71.19331 | 24103 ft | 452 kts | 110° |
| 2026-04-26 11:19 | 23.44144 | 71.22496 | 23279 ft | 438 kts | 110° |
| 2026-04-26 11:19 | 23.43068 | 71.25549 | 22483 ft | 426 kts | 109° |
| 2026-04-26 11:19 | 23.42023 | 71.28513 | 21705 ft | 415 kts | 109° |
| 2026-04-26 11:19 | 23.41006 | 71.31397 | 20967 ft | 406 kts | 109° |
| 2026-04-26 11:20 | 23.39992 | 71.34275 | 20595 ft | 400 kts | 109° |
| 2026-04-26 11:20 | 23.39331 | 71.36152 | 20361 ft | 397 kts | 109° |
| 2026-04-26 11:20 | 23.38023 | 71.39860 | 19832 ft | 404 kts | 109° |
| 2026-04-26 11:20 | 23.36968 | 71.42858 | 19722 ft | 430 kts | 109° |
| 2026-04-26 11:21 | 23.35875 | 71.45952 | 19718 ft | 445 kts | 109° |
| 2026-04-26 11:21 | 23.34749 | 71.49129 | 19713 ft | 449 kts | 109° |
| 2026-04-26 11:21 | 23.33620 | 71.52303 | 19711 ft | 450 kts | 109° |
| 2026-04-26 11:21 | 23.32485 | 71.55492 | 19512 ft | 443 kts | 109° |
| 2026-04-26 11:22 | 23.31390 | 71.58569 | 18902 ft | 441 kts | 109° |
| 2026-04-26 11:22 | 23.30273 | 71.61710 | 18249 ft | 439 kts | 109° |
| 2026-04-26 11:22 | 23.29183 | 71.64773 | 17768 ft | 433 kts | 109° |
| 2026-04-26 11:22 | 23.28122 | 71.67757 | 17445 ft | 410 kts | 109° |
| 2026-04-26 11:23 | 23.27119 | 71.70581 | 16921 ft | 389 kts | 109° |
| 2026-04-26 11:23 | 23.26168 | 71.73259 | 16465 ft | 370 kts | 109° |
| 2026-04-26 11:23 | 23.25254 | 71.75830 | 16100 ft | 356 kts | 108° |
| 2026-04-26 11:23 | 23.24381 | 71.78291 | 15883 ft | 348 kts | 108° |
| 2026-04-26 11:24 | 23.23501 | 71.80769 | 15545 ft | 344 kts | 108° |
| 2026-04-26 11:24 | 23.22649 | 71.83164 | 15162 ft | 342 kts | 108° |
| 2026-04-26 11:24 | 23.21779 | 71.85607 | 14772 ft | 339 kts | 108° |
| 2026-04-26 11:24 | 23.20930 | 71.87985 | 14396 ft | 337 kts | 108° |
| 2026-04-26 11:25 | 23.20077 | 71.90373 | 14017 ft | 335 kts | 108° |
| 2026-04-26 11:25 | 23.19461 | 71.92748 | 13627 ft | 327 kts | 91° |
| 2026-04-26 11:25 | 23.19585 | 71.95205 | 13251 ft | 320 kts | 78° |
| 2026-04-26 11:25 | 23.19963 | 71.97568 | 12879 ft | 318 kts | 76° |
| 2026-04-26 11:26 | 23.20393 | 71.99935 | 12500 ft | 315 kts | 76° |
| 2026-04-26 11:26 | 23.20829 | 72.02279 | 12123 ft | 313 kts | 76° |
| 2026-04-26 11:26 | 23.21268 | 72.04619 | 11742 ft | 311 kts | 76° |
| 2026-04-26 11:26 | 23.21696 | 72.06919 | 11367 ft | 310 kts | 76° |
| 2026-04-26 11:27 | 23.22121 | 72.09214 | 10992 ft | 311 kts | 76° |
| 2026-04-26 11:27 | 23.22543 | 72.11517 | 10596 ft | 310 kts | 76° |
| 2026-04-26 11:27 | 23.22962 | 72.13811 | 10155 ft | 310 kts | 76° |
| 2026-04-26 11:27 | 23.23380 | 72.16110 | 9715 ft | 310 kts | 76° |
| 2026-04-26 11:28 | 23.23802 | 72.18420 | 9281 ft | 310 kts | 76° |
| 2026-04-26 11:28 | 23.24221 | 72.20708 | 8990 ft | 305 kts | 76° |
| 2026-04-26 11:28 | 23.24629 | 72.22940 | 8748 ft | 299 kts | 76° |
| 2026-04-26 11:28 | 23.25038 | 72.25169 | 8373 ft | 298 kts | 76° |
| 2026-04-26 11:29 | 23.25445 | 72.27368 | 7977 ft | 298 kts | 76° |
| 2026-04-26 11:29 | 23.25859 | 72.29571 | 7726 ft | 297 kts | 76° |
| 2026-04-26 11:29 | 23.26283 | 72.31813 | 7710 ft | 299 kts | 75° |
| 2026-04-26 11:29 | 23.26706 | 72.34037 | 7707 ft | 299 kts | 75° |
| 2026-04-26 11:30 | 23.27126 | 72.36248 | 7667 ft | 296 kts | 75° |
| 2026-04-26 11:30 | 23.27404 | 72.37713 | 7457 ft | 295 kts | 75° |
| 2026-04-26 11:30 | 23.27962 | 72.40621 | 6895 ft | 297 kts | 76° |
| 2026-04-26 11:30 | 23.28393 | 72.42816 | 6514 ft | 297 kts | 76° |
| 2026-04-26 11:31 | 23.28830 | 72.45029 | 6145 ft | 296 kts | 78° |
| 2026-04-26 11:31 | 23.28923 | 72.47240 | 5888 ft | 293 kts | 92° |
| 2026-04-26 11:31 | 23.28750 | 72.49439 | 5731 ft | 284 kts | 95° |
| 2026-04-26 11:31 | 23.28541 | 72.51540 | 5575 ft | 276 kts | 95° |
| 2026-04-26 11:32 | 23.28332 | 72.53595 | 5311 ft | 273 kts | 96° |
| 2026-04-26 11:32 | 23.28126 | 72.55650 | 5105 ft | 266 kts | 96° |
| 2026-04-26 11:32 | 23.27934 | 72.57606 | 4981 ft | 255 kts | 95° |
| 2026-04-26 11:32 | 23.27753 | 72.59492 | 4740 ft | 244 kts | 95° |
| 2026-04-26 11:33 | 23.27582 | 72.61329 | 4242 ft | 244 kts | 95° |
| 2026-04-26 11:33 | 23.27466 | 72.63164 | 3827 ft | 242 kts | 95° |
| 2026-04-26 11:33 | 23.27326 | 72.64977 | 3326 ft | 243 kts | 95° |
| 2026-04-26 11:33 | 23.27188 | 72.66798 | 3033 ft | 233 kts | 96° |
| 2026-04-26 11:34 | 23.27067 | 72.68497 | 2994 ft | 213 kts | 96° |
| 2026-04-26 11:34 | 23.26956 | 72.70102 | 2992 ft | 209 kts | 96° |
| 2026-04-26 11:34 | 23.26848 | 72.71670 | 2992 ft | 208 kts | 96° |
| 2026-04-26 11:34 | 23.26741 | 72.73236 | 2997 ft | 208 kts | 96° |
| 2026-04-26 11:35 | 23.26632 | 72.74819 | 3000 ft | 208 kts | 96° |
| 2026-04-26 11:35 | 23.26523 | 72.76408 | 3000 ft | 208 kts | 96° |
| 2026-04-26 11:35 | 23.26215 | 72.77926 | 2995 ft | 205 kts | 121° |
| 2026-04-26 11:35 | 23.25608 | 72.78709 | 2992 ft | 201 kts | 146° |
| 2026-04-26 11:36 | 23.23892 | 72.79139 | 3008 ft | 191 kts | 191° |
| 2026-04-26 11:36 | 23.22617 | 72.78720 | 3015 ft | 189 kts | 207° |
| 2026-04-26 11:36 | 23.21493 | 72.77988 | 3007 ft | 187 kts | 218° |
| 2026-04-26 11:36 | 23.20492 | 72.77077 | 3004 ft | 187 kts | 224° |
| 2026-04-26 11:37 | 23.19557 | 72.76099 | 3002 ft | 187 kts | 226° |
| 2026-04-26 11:37 | 23.18638 | 72.75105 | 2865 ft | 187 kts | 226° |
| 2026-04-26 11:37 | 23.17724 | 72.74120 | 2629 ft | 186 kts | 226° |
| 2026-04-26 11:37 | 23.16804 | 72.73135 | 2376 ft | 181 kts | 225° |
| 2026-04-26 11:38 | 23.15925 | 72.72199 | 2129 ft | 172 kts | 225° |
| 2026-04-26 11:38 | 23.15103 | 72.71324 | 1886 ft | 157 kts | 225° |
| 2026-04-26 11:38 | 23.14355 | 72.70527 | 1672 ft | 146 kts | 225° |
| 2026-04-26 11:38 | 23.13637 | 72.69760 | 1491 ft | 145 kts | 225° |
| 2026-04-26 11:39 | 23.12916 | 72.68991 | 1308 ft | 145 kts | 224° |
| 2026-04-26 11:39 | 23.12198 | 72.68226 | 1124 ft | 144 kts | 224° |
| 2026-04-26 11:39 | 23.11481 | 72.67460 | 937 ft | 144 kts | 224° |
| 2026-04-26 11:39 | 23.10770 | 72.66701 | 751 ft | 144 kts | 224° |
| 2026-04-26 11:40 | 23.10054 | 72.65936 | 562 ft | 143 kts | 224° |
| 2026-04-26 11:40 | 23.09348 | 72.65173 | 374 ft | 143 kts | 224° |
| 2026-04-26 11:40 | 23.08612 | 72.64368 | 396 ft | 158 kts | 224° |
| 2026-04-26 11:40 | 23.07878 | 72.63476 | 1098 ft | 163 kts | 230° |
| 2026-04-26 11:41 | 23.07197 | 72.62511 | 1880 ft | 162 kts | 230° |
| 2026-04-26 11:42 | 23.10429 | 72.60296 | 4039 ft | 241 kts | 21° |
| 2026-04-26 11:43 | 23.12018 | 72.61048 | 3998 ft | 249 kts | 21° |
| 2026-04-26 11:43 | 23.13600 | 72.61800 | 4022 ft | 250 kts | 21° |
| 2026-04-26 11:43 | 23.15209 | 72.62563 | 4010 ft | 250 kts | 21° |
| 2026-04-26 11:43 | 23.16808 | 72.63322 | 4005 ft | 250 kts | 21° |
| 2026-04-26 11:44 | 23.18407 | 72.64082 | 4003 ft | 250 kts | 21° |
| 2026-04-26 11:44 | 23.19993 | 72.64835 | 4002 ft | 249 kts | 21° |
| 2026-04-26 11:44 | 23.21560 | 72.65581 | 3995 ft | 240 kts | 21° |
| 2026-04-26 11:44 | 23.23091 | 72.66312 | 3997 ft | 239 kts | 21° |
| 2026-04-26 11:45 | 23.24616 | 72.67040 | 4000 ft | 239 kts | 21° |
| 2026-04-26 11:45 | 23.26143 | 72.67770 | 4001 ft | 239 kts | 21° |
| 2026-04-26 11:45 | 23.27658 | 72.68494 | 3946 ft | 235 kts | 21° |
| 2026-04-26 11:45 | 23.29050 | 72.69429 | 3473 ft | 238 kts | 43° |
| 2026-04-26 11:46 | 23.29840 | 72.70998 | 2911 ft | 242 kts | 77° |
| 2026-04-26 11:46 | 23.29764 | 72.72791 | 2427 ft | 237 kts | 110° |
| 2026-04-26 11:46 | 23.28858 | 72.74216 | 2068 ft | 227 kts | 144° |
| 2026-04-26 11:46 | 23.27426 | 72.74817 | 2011 ft | 221 kts | 177° |
| 2026-04-26 11:47 | 23.25899 | 72.74730 | 2025 ft | 220 kts | 189° |
| 2026-04-26 11:47 | 23.24381 | 72.74503 | 2011 ft | 219 kts | 191° |
| 2026-04-26 11:47 | 23.22859 | 72.74256 | 2005 ft | 219 kts | 191° |
| 2026-04-26 11:47 | 23.21346 | 72.74007 | 2002 ft | 218 kts | 191° |
| 2026-04-26 11:48 | 23.19906 | 72.73772 | 1984 ft | 201 kts | 191° |
| 2026-04-26 11:48 | 23.18557 | 72.73557 | 1978 ft | 188 kts | 191° |
| 2026-04-26 11:48 | 23.17286 | 72.73288 | 1990 ft | 185 kts | 204° |
| 2026-04-26 11:48 | 23.16205 | 72.72533 | 2000 ft | 184 kts | 221° |
| 2026-04-26 11:49 | 23.15297 | 72.71590 | 1973 ft | 189 kts | 226° |
| 2026-04-26 11:49 | 23.14379 | 72.70559 | 1733 ft | 184 kts | 226° |
| 2026-04-26 11:49 | 23.13512 | 72.69611 | 1469 ft | 171 kts | 225° |
| 2026-04-26 11:49 | 23.12690 | 72.68737 | 1240 ft | 158 kts | 224° |
| 2026-04-26 11:50 | 23.11939 | 72.67941 | 1033 ft | 147 kts | 224° |
| 2026-04-26 11:50 | 23.11206 | 72.67162 | 853 ft | 146 kts | 224° |
| 2026-04-26 11:50 | 23.10486 | 72.66394 | 672 ft | 146 kts | 224° |
| 2026-04-26 11:50 | 23.09757 | 72.65615 | 484 ft | 145 kts | 224° |
| 2026-04-26 11:51 | 23.09038 | 72.64842 | 300 ft | 145 kts | 224° |
| 2026-04-26 11:51 | 23.08360 | 72.64111 | 201 ft | 119 kts | 224° |
| 2026-04-26 11:51 | 23.07919 | 72.63650 | 202 ft | 55 kts | 224° |
| 2026-04-26 11:51 | 23.07646 | 72.63362 | 199 ft | 54 kts | 224° |
| 2026-04-26 11:52 | 23.07380 | 72.63078 | 197 ft | 53 kts | 226° |
| 2026-04-26 11:52 | 23.07200 | 72.62882 | 196 ft | 54 kts | 224° |
| 2026-04-26 11:52 | 23.06968 | 72.62635 | 198 ft | 27 kts | 224° |
| 2026-04-26 11:52 | 23.06827 | 72.62488 | 198 ft | 28 kts | 224° |
| 2026-04-26 11:53 | 23.06735 | 72.62356 | 199 ft | 14 kts | 280° |
| 2026-04-26 11:53 | 23.06782 | 72.62291 | 198 ft | 0 kts | 315° |
| 2026-04-26 11:54 | 23.06793 | 72.62278 | 198 ft | 5 kts | 315° |
| 2026-04-26 11:54 | 23.06841 | 72.62267 | 199 ft | 10 kts | 20° |
| 2026-04-26 11:54 | 23.06907 | 72.62320 | 198 ft | 12 kts | 45° |
| 2026-04-26 11:54 | 23.06972 | 72.62391 | 198 ft | 13 kts | 45° |
| 2026-04-26 11:55 | 23.07044 | 72.62470 | 198 ft | 14 kts | 44° |
| 2026-04-26 11:55 | 23.07119 | 72.62549 | 198 ft | 12 kts | 44° |
| 2026-04-26 11:55 | 23.07174 | 72.62569 | 197 ft | 9 kts | 350° |
| 2026-04-26 11:55 | 23.07215 | 72.62534 | 197 ft | 6 kts | 315° |
| 2026-04-26 11:56 | 23.07245 | 72.62505 | 197 ft | 6 kts | 327° |
| 2026-04-26 11:56 | 23.07301 | 72.62504 | 196 ft | 8 kts | 32° |
| 2026-04-26 11:56 | 23.07337 | 72.62539 | 195 ft | 9 kts | 45° |
| 2026-04-26 11:56 | 23.07361 | 72.62557 | 196 ft | 4 kts | 4° |
| 2026-04-26 11:57 | 23.07391 | 72.62540 | 196 ft | 5 kts | 319° |
| 2026-04-26 11:57 | 23.07413 | 72.62515 | 197 ft | 1 kts | 314° |
| 2026-04-26 11:57 | 23.07416 | 72.62512 | 197 ft | 0 kts | 314° |
| 2026-04-26 11:57 | 23.07420 | 72.62508 | 197 ft | 0 kts | 314° |